Time;durP1;ratioP1;P1;durP2;ratioP2;P2;SDS_P1;SDS_P2;PMS_P1;PMS_P2;Temp;Humidity;BMP_temperature;BMP_pressure;BME280_temperature;BME280_humidity;BME280_pressure;Samples;Min_cycle;Max_cycle;Signal;HPM_P1;HPM_P2
2023/07/31 00:00:29;;;;;;;18.70;7.60;;;;;;;17.28;100.00;100834.81;3532212;40;20126;-64
2023/07/31 00:02:54;;;;;;;15.52;7.05;;;;;;;17.27;100.00;100829.53;3537821;40;20259;-64
2023/07/31 00:05:21;;;;;;;18.33;6.85;;;;;;;17.26;100.00;100836.84;3538381;40;20058;-63
2023/07/31 00:07:47;;;;;;;18.70;7.43;;;;;;;17.28;100.00;100845.69;3538706;40;20070;-64
2023/07/31 00:10:13;;;;;;;18.95;6.85;;;;;;;16.73;100.00;100736.56;3539346;40;20152;-64
2023/07/31 00:12:44;;;;;;;17.17;6.30;;;;;;;17.27;99.87;100833.13;3538009;40;20073;-64
2023/07/31 00:15:11;;;;;;;15.88;7.03;;;;;;;17.28;99.49;100839.41;3537816;40;20130;-64
2023/07/31 00:17:37;;;;;;;15.95;6.55;;;;;;;17.28;100.00;100834.81;3536337;40;20409;-64
2023/07/31 00:20:03;;;;;;;16.30;7.03;;;;;;;17.28;99.52;100837.53;3536268;40;20046;-64
2023/07/31 00:22:29;;;;;;;15.60;6.65;;;;;;;17.22;99.45;100826.38;3534380;40;20389;-64
2023/07/31 00:24:56;;;;;;;18.13;6.57;;;;;;;17.28;99.42;100834.81;3540231;40;20069;-64
2023/07/31 00:27:22;;;;;;;16.92;6.30;;;;;;;17.25;100.00;100829.66;3537935;40;20328;-64
2023/07/31 00:29:47;;;;;;;14.25;6.35;;;;;;;17.29;99.66;100828.41;3533844;40;20314;-64
2023/07/31 00:32:13;;;;;;;18.38;7.03;;;;;;;17.30;98.85;100831.97;3534100;40;20050;-64
2023/07/31 00:34:38;;;;;;;20.88;7.05;;;;;;;17.29;98.63;100822.97;3535334;40;20058;-63
2023/07/31 00:37:05;;;;;;;16.85;6.70;;;;;;;17.28;98.78;100829.38;3536653;40;20057;-64
2023/07/31 00:39:31;;;;;;;16.15;6.72;;;;;;;16.88;98.41;100766.94;3534865;40;20082;-64
2023/07/31 00:41:57;;;;;;;15.50;6.43;;;;;;;17.30;99.51;100830.13;3537653;40;20121;-64
2023/07/31 00:44:23;;;;;;;15.98;6.53;;;;;;;17.32;98.78;100824.56;3534489;40;20129;-64
2023/07/31 00:46:49;;;;;;;12.18;5.93;;;;;;;17.32;98.78;100820.00;3537332;40;20078;-65
2023/07/31 00:49:16;;;;;;;13.95;5.90;;;;;;;17.32;99.06;100824.56;3537352;40;20058;-63
2023/07/31 00:51:41;;;;;;;14.02;6.20;;;;;;;17.32;98.72;100824.56;3533686;40;20122;-63
2023/07/31 00:54:08;;;;;;;14.50;6.03;;;;;;;17.33;98.37;100823.56;3536947;40;20049;-64
2023/07/31 00:56:33;;;;;;;14.98;6.25;;;;;;;17.31;98.19;100818.25;3536104;40;20409;-64
2023/07/31 00:58:59;;;;;;;18.95;6.28;;;;;;;17.33;97.78;100816.25;3536613;40;20062;-65
2023/07/31 01:01:25;;;;;;;13.20;5.60;;;;;;;16.79;97.47;100721.63;3540641;40;20420;-63
2023/07/31 01:03:53;;;;;;;14.43;5.78;;;;;;;17.35;98.00;100818.84;3536954;40;20413;-65
2023/07/31 01:06:44;;;;;;;9.23;4.82;;;;;;;17.32;97.30;100811.84;3539860;40;20094;-64
2023/07/31 01:09:21;;;;;;;14.15;5.95;;;;;;;17.32;97.13;100809.13;3538093;40;20054;-65
2023/07/31 01:11:57;;;;;;;15.85;6.03;;;;;;;17.13;96.57;100773.75;3536830;40;20073;-65
2023/07/31 01:14:22;;;;;;;14.63;5.68;;;;;;;17.32;97.08;100809.13;3537084;40;20106;-64
2023/07/31 01:16:51;;;;;;;12.85;5.95;;;;;;;17.31;97.19;100807.38;3535411;40;20328;-64
2023/07/31 01:19:23;;;;;;;10.13;5.25;;;;;;;17.30;95.18;100811.09;3537167;40;20054;-64
2023/07/31 01:22:17;;;;;;;16.42;6.50;;;;;;;17.31;95.88;100807.38;3536755;40;20074;-64
2023/07/31 01:25:19;;;;;;;13.02;5.68;;;;;;;17.28;94.50;100804.94;3534849;40;20640;-64
2023/07/31 01:28:01;;;;;;;15.55;5.90;;;;;;;17.23;94.93;100803.66;3536739;40;20401;-64
2023/07/31 01:30:37;;;;;;;11.82;5.20;;;;;;;17.23;95.22;100809.09;3537484;40;20065;-64
2023/07/31 01:33:07;;;;;;;14.80;5.50;;;;;;;17.04;94.83;100769.16;3536052;40;20086;-64
2023/07/31 01:35:38;;;;;;;15.10;5.85;;;;;;;17.20;94.72;100799.34;3535980;40;20056;-64
2023/07/31 01:38:05;;;;;;;15.45;5.82;;;;;;;17.23;93.90;100801.78;3536637;40;20124;-64
2023/07/31 01:40:31;;;;;;;12.93;5.40;;;;;;;17.25;94.43;100812.50;3537898;40;20128;-64
2023/07/31 01:42:56;;;;;;;11.40;5.68;;;;;;;17.23;94.25;100807.22;3535129;40;20058;-65
2023/07/31 01:45:22;;;;;;;15.15;5.72;;;;;;;17.21;93.67;100798.34;3538108;40;20058;-64
2023/07/31 01:47:47;;;;;;;10.63;4.72;;;;;;;17.22;94.18;100802.81;3536286;40;20074;-64
2023/07/31 01:50:13;;;;;;;12.00;5.80;;;;;;;17.15;93.32;100793.47;3538949;40;20059;-64
2023/07/31 01:52:39;;;;;;;17.17;5.70;;;;;;;17.20;92.19;100798.50;3534980;40;20056;-64
2023/07/31 01:55:05;;;;;;;17.15;6.25;;;;;;;17.21;93.01;100801.06;3536087;40;20428;-64
2023/07/31 01:57:30;;;;;;;15.05;6.07;;;;;;;16.70;92.21;100717.81;3533657;40;20302;-64
2023/07/31 01:59:56;;;;;;;16.92;5.78;;;;;;;17.08;92.12;100784.16;3534138;40;20078;-65
2023/07/31 02:02:23;;;;;;;13.35;6.00;;;;;;;17.14;91.78;100789.03;3534602;40;20058;-64
2023/07/31 02:04:49;;;;;;;14.32;6.13;;;;;;;16.98;91.39;100753.41;3534249;40;20410;-64
2023/07/31 02:07:15;;;;;;;15.15;5.63;;;;;;;17.07;92.29;100772.44;3536936;40;20052;-64
2023/07/31 02:09:40;;;;;;;13.20;5.45;;;;;;;17.12;91.53;100775.56;3535017;40;20122;-64
2023/07/31 02:12:08;;;;;;;14.60;5.93;;;;;;;17.12;91.19;100769.28;3534818;40;20055;-64
2023/07/31 02:14:34;;;;;;;11.88;5.82;;;;;;;16.59;90.78;100683.50;3534332;40;20062;-64
2023/07/31 02:17:00;;;;;;;10.85;5.35;;;;;;;17.10;91.21;100769.44;3534216;40;20057;-64
2023/07/31 02:19:26;;;;;;;11.20;5.65;;;;;;;17.11;91.65;100773.88;3535017;40;20381;-64
2023/07/31 02:21:51;;;;;;;16.83;6.28;;;;;;;17.09;91.42;100769.56;3535395;40;20109;-64
2023/07/31 02:24:17;;;;;;;13.57;6.43;;;;;;;16.45;90.23;100663.00;3536150;40;20080;-64
2023/07/31 02:26:42;;;;;;;18.88;6.35;;;;;;;17.07;89.99;100761.56;3535164;40;20637;-64
2023/07/31 02:29:09;;;;;;;14.13;5.63;;;;;;;17.07;90.29;100758.00;3535516;40;20058;-64
2023/07/31 02:31:34;;;;;;;14.65;6.72;;;;;;;17.04;90.50;100753.69;3534696;40;20054;-64
2023/07/31 02:34:00;;;;;;;13.30;7.18;;;;;;;17.04;90.12;100745.56;3534787;40;20137;-64
2023/07/31 02:36:26;;;;;;;13.25;6.25;;;;;;;17.06;89.33;100748.13;3535050;40;20058;-64
2023/07/31 02:38:51;;;;;;;12.00;6.03;;;;;;;17.02;89.53;100741.25;3535536;40;20310;-64
2023/07/31 02:41:17;;;;;;;15.10;6.28;;;;;;;16.48;89.13;100651.88;3536673;40;20050;-64
2023/07/31 02:43:43;;;;;;;16.50;6.32;;;;;;;16.50;89.80;100648.19;3532739;40;20081;-64
2023/07/31 02:46:08;;;;;;;15.30;6.70;;;;;;;16.05;89.35;100575.34;3535244;40;20086;-64
2023/07/31 02:48:34;;;;;;;15.95;5.50;;;;;;;17.03;88.69;100741.13;3535043;40;20332;-64
2023/07/31 02:50:59;;;;;;;13.82;6.20;;;;;;;16.99;89.37;100731.53;3533799;40;20398;-64
2023/07/31 02:53:25;;;;;;;13.32;6.25;;;;;;;17.04;90.22;100744.69;3535871;40;20062;-64
2023/07/31 02:55:51;;;;;;;17.48;6.07;;;;;;;17.00;89.80;100744.13;3535285;40;20081;-65
2023/07/31 02:58:16;;;;;;;11.05;5.82;;;;;;;17.03;89.68;100742.97;3535308;40;20058;-64
2023/07/31 03:00:44;;;;;;;16.20;6.20;;;;;;;16.99;89.75;100733.38;3535714;40;20070;-64
2023/07/31 03:03:10;;;;;;;15.02;5.75;;;;;;;16.99;89.27;100739.66;3533707;40;20406;-64
2023/07/31 03:05:35;;;;;;;13.25;5.95;;;;;;;16.99;89.89;100731.53;3535039;40;20068;-64
2023/07/31 03:08:01;;;;;;;14.60;5.90;;;;;;;17.00;89.26;100729.66;3535033;40;20055;-64
2023/07/31 03:10:27;;;;;;;12.43;5.78;;;;;;;17.03;90.00;100732.97;3532188;40;20051;-64
2023/07/31 03:12:53;;;;;;;15.13;5.43;;;;;;;17.03;90.33;100732.09;3536170;40;20543;-64
2023/07/31 03:15:18;;;;;;;13.30;6.15;;;;;;;16.99;89.88;100725.25;3535463;40;20679;-64
2023/07/31 03:17:44;;;;;;;14.30;6.47;;;;;;;17.06;90.31;100737.25;3533669;40;20361;-64
2023/07/31 03:20:10;;;;;;;13.57;5.50;;;;;;;17.03;90.12;100732.09;3533124;40;20087;-64
2023/07/31 03:22:36;;;;;;;13.55;6.10;;;;;;;17.02;89.85;100722.25;3532898;40;20070;-65
2023/07/31 03:25:03;;;;;;;16.58;5.40;;;;;;;16.63;90.06;100659.66;3532649;40;20695;-65
2023/07/31 03:27:29;;;;;;;12.85;5.82;;;;;;;17.02;90.04;100730.41;3532611;40;20124;-64
2023/07/31 03:29:55;;;;;;;16.90;5.85;;;;;;;16.50;90.18;100627.34;3535615;40;20062;-64
2023/07/31 03:32:20;;;;;;;14.32;5.85;;;;;;;17.09;89.97;100731.53;3533379;40;20054;-65
2023/07/31 03:34:46;;;;;;;11.52;5.68;;;;;;;16.56;90.10;100631.38;3533600;40;20074;-64
2023/07/31 03:37:12;;;;;;;15.35;5.82;;;;;;;17.04;90.13;100698.53;3534945;40;20054;-66
2023/07/31 03:39:38;;;;;;;16.33;5.97;;;;;;;16.65;90.50;100633.22;3533728;40;20094;-64
2023/07/31 03:42:04;;;;;;;14.65;5.50;;;;;;;17.11;90.40;100707.84;3537512;40;20366;-65
2023/07/31 03:44:29;;;;;;;12.20;5.82;;;;;;;17.15;90.24;100711.97;3534035;40;20105;-65
2023/07/31 03:46:55;;;;;;;14.55;5.32;;;;;;;16.60;90.16;100613.81;3533152;40;20054;-65
2023/07/31 03:49:21;;;;;;;13.15;5.28;;;;;;;17.19;90.29;100705.28;3533851;40;20047;-64
2023/07/31 03:51:46;;;;;;;14.15;5.78;;;;;;;17.21;89.85;100703.25;3538635;40;20353;-65
2023/07/31 03:54:13;;;;;;;14.75;5.55;;;;;;;17.24;90.30;100697.56;3538231;40;20062;-65
2023/07/31 03:56:38;;;;;;;15.75;5.93;;;;;;;17.27;90.64;100694.56;3535591;40;20449;-65
2023/07/31 03:59:04;;;;;;;13.77;5.80;;;;;;;16.85;90.56;100618.75;3532568;40;20059;-65
2023/07/31 04:01:30;;;;;;;17.10;5.68;;;;;;;17.24;91.05;100670.38;3532969;40;20042;-65
2023/07/31 04:03:56;;;;;;;13.63;5.18;;;;;;;17.30;90.63;100680.69;3532711;40;20136;-65
2023/07/31 04:06:21;;;;;;;12.98;5.45;;;;;;;17.30;90.98;100675.25;3533681;40;20114;-65
2023/07/31 04:08:47;;;;;;;17.90;8.20;;;;;;;17.33;90.89;100680.41;3535032;40;20058;-65
2023/07/31 04:11:13;;;;;;;12.52;5.32;;;;;;;17.35;90.72;100664.81;3534611;40;20455;-65
2023/07/31 04:13:39;;;;;;;15.15;5.40;;;;;;;16.77;90.70;100569.72;3533278;40;20427;-65
2023/07/31 04:16:05;;;;;;;13.45;5.43;;;;;;;17.08;90.62;100618.47;3533268;40;20058;-65
2023/07/31 04:18:32;;;;;;;11.98;5.53;;;;;;;17.43;91.10;100668.69;3532464;40;20077;-64
2023/07/31 04:20:58;;;;;;;10.90;5.20;;;;;;;17.43;90.36;100658.66;3535047;40;20621;-65
2023/07/31 04:23:25;;;;;;;13.30;5.28;;;;;;;17.46;90.31;100658.38;3532740;40;20074;-65
2023/07/31 04:25:51;;;;;;;13.75;5.97;;;;;;;17.49;90.64;100649.09;3534337;40;20086;-65
2023/07/31 04:28:17;;;;;;;15.35;5.18;;;;;;;17.52;90.13;100651.53;3532045;40;20058;-65
2023/07/31 04:30:42;;;;;;;15.63;5.35;;;;;;;17.40;90.25;100632.63;3535046;40;20063;-65
2023/07/31 04:33:08;;;;;;;9.85;5.05;;;;;;;17.58;90.35;100650.94;3532502;40;20363;-65
2023/07/31 04:35:34;;;;;;;15.65;5.53;;;;;;;17.54;90.52;100638.66;3533018;40;20066;-65
2023/07/31 04:38:00;;;;;;;13.43;5.28;;;;;;;17.57;90.31;100638.34;3534238;40;20058;-65
2023/07/31 04:40:26;;;;;;;10.05;5.18;;;;;;;17.63;91.04;100643.19;3539499;40;20054;-65
2023/07/31 04:42:51;;;;;;;16.23;5.40;;;;;;;17.63;91.26;100637.75;3536250;40;20054;-66
2023/07/31 04:45:17;;;;;;;14.32;5.38;;;;;;;17.22;91.66;100571.91;3532118;40;20098;-65
2023/07/31 04:47:42;;;;;;;13.77;5.20;;;;;;;17.57;91.67;100616.59;3532126;40;20086;-65
2023/07/31 04:50:09;;;;;;;10.60;5.03;;;;;;;17.64;91.82;100632.19;3533044;40;20066;-65
2023/07/31 04:52:34;;;;;;;11.27;5.10;;;;;;;17.66;91.23;100632.03;3540946;40;20054;-65
2023/07/31 04:55:00;;;;;;;11.25;5.40;;;;;;;17.67;91.72;100617.47;3536930;40;20086;-65
2023/07/31 04:57:26;;;;;;;10.57;5.22;;;;;;;17.68;92.07;100624.59;3533349;40;20050;-65
2023/07/31 04:59:51;;;;;;;9.70;5.57;;;;;;;17.69;92.57;100630.88;3539201;40;20050;-66
2023/07/31 05:02:17;;;;;;;12.02;4.93;;;;;;;17.69;91.91;100620.88;3539756;40;20046;-65
2023/07/31 05:04:43;;;;;;;10.15;5.50;;;;;;;17.68;92.77;100624.59;3535096;40;20074;-65
2023/07/31 05:07:08;;;;;;;12.68;5.47;;;;;;;17.57;93.03;100600.28;3538936;40;20094;-66
2023/07/31 05:09:34;;;;;;;10.23;5.38;;;;;;;17.67;93.74;100617.47;3537727;40;20062;-65
2023/07/31 05:11:59;;;;;;;10.52;5.10;;;;;;;17.62;93.20;100617.03;3536027;40;20064;-66
2023/07/31 05:14:26;;;;;;;11.85;5.70;;;;;;;17.61;93.86;100615.31;3541219;40;20412;-66
2023/07/31 05:16:52;;;;;;;11.00;5.47;;;;;;;17.57;94.85;100612.03;3533675;40;20053;-64
2023/07/31 05:19:18;;;;;;;13.25;4.95;;;;;;;17.23;94.69;100553.72;3534251;40;20058;-65
2023/07/31 05:21:43;;;;;;;10.82;5.70;;;;;;;17.51;96.15;100609.03;3534473;40;20090;-65
2023/07/31 05:24:10;;;;;;;11.07;5.30;;;;;;;17.50;95.91;100612.75;3539855;40;20309;-65
2023/07/31 05:26:37;;;;;;;10.70;4.95;;;;;;;17.48;96.71;100618.34;3539112;40;20062;-66
2023/07/31 05:29:03;;;;;;;12.35;4.93;;;;;;;17.20;97.36;100564.88;3539958;40;20400;-65
2023/07/31 05:31:29;;;;;;;8.63;4.38;;;;;;;17.45;97.20;100620.50;3533960;40;20078;-66
2023/07/31 05:33:54;;;;;;;10.52;5.07;;;;;;;17.40;96.93;100607.31;3542690;40;20263;-65
2023/07/31 05:36:20;;;;;;;11.77;5.32;;;;;;;16.88;98.01;100522.59;3538744;40;20065;-65
2023/07/31 05:38:46;;;;;;;8.85;4.20;;;;;;;16.84;98.17;100524.72;3543807;40;20418;-65
2023/07/31 05:41:15;;;;;;;7.10;4.40;;;;;;;17.31;98.54;100606.31;3545869;40;20105;-65
2023/07/31 05:43:40;;;;;;;7.63;5.07;;;;;;;17.20;100.00;100581.19;3544204;40;20138;-65
2023/07/31 05:46:06;;;;;;;7.65;4.95;;;;;;;17.21;100.00;100586.47;3541360;40;20070;-65
2023/07/31 05:48:34;;;;;;;8.70;4.40;;;;;;;17.25;100.00;100596.03;3541829;40;20062;-64
2023/07/31 05:51:00;;;;;;;6.60;4.25;;;;;;;17.26;100.00;100596.91;3546704;40;20132;-64
2023/07/31 05:53:25;;;;;;;7.97;4.15;;;;;;;17.21;100.00;100589.16;3541417;40;20117;-64
2023/07/31 05:55:51;;;;;;;8.93;4.13;;;;;;;17.17;100.00;100580.47;3533659;40;20486;-65
2023/07/31 05:58:17;;;;;;;6.55;4.00;;;;;;;17.18;100.00;100584.03;3534944;40;20069;-65
2023/07/31 06:00:42;;;;;;;5.72;3.92;;;;;;;17.21;100.00;100594.59;3542521;40;20065;-66
2023/07/31 06:03:08;;;;;;;6.10;3.97;;;;;;;17.18;100.00;100597.59;3541952;40;20416;-65
2023/07/31 06:05:34;;;;;;;7.25;3.55;;;;;;;17.16;100.00;100575.19;3544968;40;20058;-65
2023/07/31 06:08:01;;;;;;;6.22;3.58;;;;;;;17.20;100.00;100589.34;3541668;40;20141;-65
2023/07/31 06:10:27;;;;;;;5.50;3.70;;;;;;;17.18;100.00;100581.31;3533310;40;20361;-65
2023/07/31 06:12:52;;;;;;;5.53;3.40;;;;;;;17.20;100.00;100584.75;3541288;40;20062;-66
2023/07/31 06:15:19;;;;;;;7.28;3.90;;;;;;;17.18;100.00;100573.16;3545287;40;20050;-66
2023/07/31 06:17:45;;;;;;;4.55;3.45;;;;;;;16.47;100.00;100460.25;3543072;40;20409;-65
2023/07/31 06:20:11;;;;;;;5.88;4.05;;;;;;;17.13;100.00;100565.47;3541172;40;20050;-64
2023/07/31 06:22:36;;;;;;;7.22;4.13;;;;;;;17.17;100.00;100577.75;3537454;40;20072;-63
2023/07/31 06:25:02;;;;;;;4.10;3.38;;;;;;;17.17;100.00;100574.16;3539260;40;20376;-64
2023/07/31 06:27:28;;;;;;;4.85;4.00;;;;;;;17.20;100.00;100573.88;3539531;40;20050;-64
2023/07/31 06:29:54;;;;;;;7.10;4.07;;;;;;;17.22;100.00;100571.00;3540398;40;20464;-64
2023/07/31 06:32:20;;;;;;;7.75;4.47;;;;;;;17.18;100.00;100562.28;3534843;40;20129;-63
2023/07/31 06:34:45;;;;;;;5.47;4.10;;;;;;;17.22;100.00;100566.47;3534635;40;20054;-63
2023/07/31 06:37:11;;;;;;;7.05;4.22;;;;;;;16.80;100.00;100490.72;3534847;40;21216;-63
2023/07/31 06:39:37;;;;;;;7.15;4.88;;;;;;;17.28;100.00;100567.72;3535174;40;20050;-64
2023/07/31 06:42:04;;;;;;;7.32;4.50;;;;;;;17.29;100.00;100558.59;3534413;40;20042;-63
2023/07/31 06:44:29;;;;;;;7.28;4.50;;;;;;;16.85;100.00;100487.56;3535576;40;20394;-63
2023/07/31 06:46:55;;;;;;;6.63;4.68;;;;;;;17.32;100.00;100547.44;3536163;40;20062;-63
2023/07/31 06:49:21;;;;;;;7.03;4.10;;;;;;;16.89;100.00;100476.28;3535145;40;20065;-63
2023/07/31 06:51:46;;;;;;;6.68;4.40;;;;;;;17.30;100.00;100544.84;3535347;40;20050;-64
2023/07/31 06:54:12;;;;;;;5.13;4.22;;;;;;;17.31;100.00;100538.41;3539841;40;20074;-64
2023/07/31 06:56:37;;;;;;;5.75;4.28;;;;;;;17.35;100.00;100536.28;3535193;40;20061;-64
2023/07/31 06:59:03;;;;;;;4.70;4.25;;;;;;;17.28;100.00;100529.69;3534020;40;20054;-63
2023/07/31 07:01:29;;;;;;;5.88;3.80;;;;;;;17.31;100.00;100538.41;3533162;40;20047;-63
2023/07/31 07:03:55;;;;;;;4.72;3.58;;;;;;;17.37;100.00;100548.69;3535108;40;20061;-64
2023/07/31 07:06:22;;;;;;;5.72;3.95;;;;;;;17.43;100.00;100538.25;3534469;40;20058;-64
2023/07/31 07:08:48;;;;;;;4.30;3.42;;;;;;;17.42;100.00;100540.09;3533048;40;20101;-64
2023/07/31 07:11:13;;;;;;;5.00;3.92;;;;;;;17.43;100.00;100532.81;3534195;40;20309;-64
2023/07/31 07:13:39;;;;;;;4.03;3.65;;;;;;;17.43;100.00;100532.81;3535980;40;20283;-64
2023/07/31 07:16:05;;;;;;;4.18;3.78;;;;;;;17.40;100.00;100523.94;3534192;40;20061;-65
2023/07/31 07:18:30;;;;;;;4.50;3.55;;;;;;;17.42;100.00;100536.53;3534508;40;20061;-65
2023/07/31 07:20:58;;;;;;;5.43;3.63;;;;;;;17.42;100.00;100531.09;3533274;40;20050;-64
2023/07/31 07:23:24;;;;;;;4.72;3.60;;;;;;;16.64;100.00;100396.25;3534515;40;20054;-65
2023/07/31 07:25:51;;;;;;;4.28;3.53;;;;;;;17.42;100.00;100531.09;3534587;40;20282;-64
2023/07/31 07:28:16;;;;;;;5.70;3.75;;;;;;;17.42;100.00;100523.81;3535967;40;20060;-64
2023/07/31 07:30:42;;;;;;;5.50;3.70;;;;;;;17.40;100.00;100523.94;3535930;40;20064;-63
2023/07/31 07:33:08;;;;;;;4.72;3.92;;;;;;;17.42;100.00;100525.66;3535894;40;20070;-64
2023/07/31 07:35:35;;;;;;;5.70;3.90;;;;;;;17.39;100.00;100521.38;3532947;40;20425;-64
2023/07/31 07:38:04;;;;;;;6.55;4.20;;;;;;;17.43;100.00;100530.09;3536809;40;20354;-63
2023/07/31 07:40:30;;;;;;;5.68;4.10;;;;;;;17.41;100.00;100535.66;3533658;40;20051;-64
2023/07/31 07:42:55;;;;;;;5.70;4.20;;;;;;;17.43;100.00;100538.25;3535103;40;20046;-63
2023/07/31 07:45:21;;;;;;;5.53;4.30;;;;;;;17.43;100.00;100527.38;3533705;40;20057;-64
2023/07/31 07:47:47;;;;;;;6.97;4.50;;;;;;;17.47;100.00;100528.78;3534366;40;20074;-63
2023/07/31 07:50:12;;;;;;;7.10;4.80;;;;;;;17.49;100.00;100530.34;3534447;40;20329;-64
2023/07/31 07:52:38;;;;;;;5.43;4.47;;;;;;;17.54;100.00;100529.94;3538449;40;20058;-64
2023/07/31 07:55:04;;;;;;;7.88;4.97;;;;;;;17.55;100.00;100535.22;3537467;40;20065;-64
2023/07/31 07:57:30;;;;;;;5.35;4.85;;;;;;;17.56;100.00;100522.47;3533650;40;20066;-64
2023/07/31 07:59:55;;;;;;;6.05;4.57;;;;;;;17.08;100.00;100447.38;3532028;40;20420;-64
2023/07/31 08:02:22;;;;;;;9.80;4.80;;;;;;;17.56;100.00;100528.75;3532737;40;20061;-63
2023/07/31 08:04:48;;;;;;;6.95;5.10;;;;;;;17.58;100.00;100532.19;3533814;40;20050;-63
2023/07/31 08:07:14;;;;;;;8.45;5.10;;;;;;;17.57;100.00;100529.63;3538488;40;20057;-63
2023/07/31 08:09:40;;;;;;;6.72;5.00;;;;;;;17.57;100.00;100527.78;3533112;40;20065;-63
2023/07/31 08:12:06;;;;;;;8.48;5.10;;;;;;;17.57;100.00;100524.19;3535253;40;20098;-63
2023/07/31 08:14:33;;;;;;;7.43;4.90;;;;;;;17.55;100.00;100515.34;3533819;40;20377;-63
2023/07/31 08:16:59;;;;;;;6.57;5.18;;;;;;;17.59;100.00;100511.31;3533752;40;20092;-62
2023/07/31 08:19:24;;;;;;;8.05;5.32;;;;;;;17.60;100.00;100519.34;3535024;40;20359;-63
2023/07/31 08:21:50;;;;;;;8.52;5.22;;;;;;;17.03;100.00;100427.94;3532178;40;20132;-62
2023/07/31 08:24:16;;;;;;;6.85;5.05;;;;;;;17.03;100.00;100427.94;3546065;40;20065;-63
2023/07/31 08:26:42;;;;;;;6.95;4.85;;;;;;;17.21;100.00;100475.09;3534676;40;20065;-63
2023/07/31 08:29:08;;;;;;;8.52;5.13;;;;;;;17.57;100.00;100521.47;3533848;40;20154;-63
2023/07/31 08:31:34;;;;;;;8.40;5.60;;;;;;;17.58;100.00;100520.47;3533441;40;20060;-63
2023/07/31 08:34:00;;;;;;;8.43;5.30;;;;;;;17.21;100.00;100453.34;3534098;40;20062;-64
2023/07/31 08:36:26;;;;;;;6.22;5.20;;;;;;;17.58;100.00;100520.47;3534489;40;20290;-63
2023/07/31 08:38:51;;;;;;;7.50;5.05;;;;;;;17.58;100.00;100515.03;3537345;40;20305;-63
2023/07/31 08:41:17;;;;;;;11.75;5.72;;;;;;;17.60;100.00;100518.44;3533909;40;20055;-63
2023/07/31 08:43:46;;;;;;;8.75;5.10;;;;;;;17.58;100.00;100515.03;3534661;40;20059;-63
2023/07/31 08:46:13;;;;;;;6.22;4.60;;;;;;;17.59;100.00;100516.75;3533718;40;20070;-63
2023/07/31 08:48:42;;;;;;;7.93;4.88;;;;;;;17.59;100.00;100517.59;3533999;40;20062;-63
2023/07/31 08:51:09;;;;;;;7.72;5.28;;;;;;;17.10;100.00;100439.97;3532297;40;20066;-63
2023/07/31 08:53:35;;;;;;;9.70;5.53;;;;;;;17.61;100.00;100522.91;3543389;40;20054;-63
2023/07/31 08:56:02;;;;;;;9.63;5.47;;;;;;;17.62;100.00;100506.44;3535035;40;20479;-64
2023/07/31 08:58:31;;;;;;;10.27;5.50;;;;;;;17.65;100.00;100510.72;3532775;40;20054;-63
2023/07/31 09:01:03;;;;;;;9.35;5.97;;;;;;;17.21;100.00;100431.63;3533156;40;20054;-63
2023/07/31 09:03:35;;;;;;;10.43;5.28;;;;;;;17.79;100.00;100526.59;3534247;40;20059;-63
2023/07/31 09:06:06;;;;;;;5.63;5.05;;;;;;;17.82;100.00;100512.69;3536115;40;20368;-63
2023/07/31 09:08:32;;;;;;;9.85;5.72;;;;;;;17.82;100.00;100501.81;3539019;40;20062;-65
2023/07/31 09:11:03;;;;;;;9.30;5.15;;;;;;;17.91;100.00;100515.50;3534489;40;20054;-64
2023/07/31 09:13:31;;;;;;;9.27;5.03;;;;;;;17.94;100.00;100515.22;3536331;40;20054;-65
2023/07/31 09:15:58;;;;;;;6.22;5.00;;;;;;;17.96;99.75;100508.63;3535296;40;20055;-65
2023/07/31 09:18:23;;;;;;;8.13;5.28;;;;;;;18.04;100.00;100506.00;3533789;40;20063;-64
2023/07/31 09:21:06;;;;;;;9.70;5.10;;;;;;;18.04;99.24;100497.81;3537514;40;20062;-64
2023/07/31 09:23:47;;;;;;;7.68;4.72;;;;;;;18.08;99.63;100506.56;3533607;40;20095;-64
2023/07/31 09:26:35;;;;;;;11.48;5.57;;;;;;;17.56;99.72;100402.88;3538967;40;20050;-64
2023/07/31 09:29:06;;;;;;;8.93;5.15;;;;;;;18.20;99.68;100504.47;3534018;40;20085;-64
2023/07/31 09:31:44;;;;;;;6.18;4.85;;;;;;;18.23;98.71;100490.56;3540069;40;20050;-64
2023/07/31 09:34:16;;;;;;;9.73;5.45;;;;;;;18.29;98.69;100495.41;3540169;40;20067;-65
2023/07/31 09:36:48;;;;;;;8.07;5.25;;;;;;;18.32;98.09;100492.38;3538920;40;20296;-63
2023/07/31 09:39:17;;;;;;;8.30;5.38;;;;;;;18.33;97.29;100489.53;3540986;40;20423;-63
2023/07/31 09:41:47;;;;;;;6.80;4.55;;;;;;;18.41;96.45;100494.19;3541044;40;20110;-63
2023/07/31 09:44:13;;;;;;;7.00;4.65;;;;;;;18.45;96.31;100476.53;3539377;40;20511;-63
2023/07/31 09:46:39;;;;;;;6.88;4.60;;;;;;;18.46;95.89;100483.69;3542534;40;20046;-63
2023/07/31 09:49:12;;;;;;;7.25;4.32;;;;;;;18.49;95.17;100487.94;3540870;40;20045;-63
2023/07/31 09:51:41;;;;;;;5.90;4.10;;;;;;;18.52;94.59;100495.81;3533565;40;20125;-63
2023/07/31 09:54:16;;;;;;;5.82;4.50;;;;;;;17.97;94.93;100403.41;3541756;40;20051;-63
2023/07/31 09:56:48;;;;;;;5.72;4.50;;;;;;;18.52;94.17;100485.81;3537465;40;20374;-63
2023/07/31 09:59:19;;;;;;;7.80;4.40;;;;;;;18.56;95.57;100487.19;3536677;40;20098;-63
2023/07/31 10:01:46;;;;;;;7.80;4.20;;;;;;;18.53;95.29;100473.91;3535322;40;20057;-63
2023/07/31 10:04:14;;;;;;;7.00;4.75;;;;;;;18.65;95.31;100481.81;3534812;40;20066;-63
2023/07/31 10:06:45;;;;;;;7.47;4.35;;;;;;;18.71;94.20;100478.47;3541118;40;20078;-63
2023/07/31 10:09:18;;;;;;;7.15;4.32;;;;;;;18.75;94.85;100471.75;3534153;40;20058;-64
2023/07/31 10:12:01;;;;;;;9.48;4.20;;;;;;;18.79;93.13;100473.16;3541883;40;20058;-64
2023/07/31 10:14:28;;;;;;;4.95;3.47;;;;;;;18.86;94.38;100473.38;3536852;40;20057;-64
2023/07/31 10:16:57;;;;;;;6.40;4.25;;;;;;;18.96;94.12;100479.56;3539333;40;20080;-64
2023/07/31 10:19:23;;;;;;;6.28;4.05;;;;;;;19.05;92.93;100473.19;3540360;40;20054;-64
2023/07/31 10:21:50;;;;;;;4.82;3.50;;;;;;;19.10;91.49;100476.28;3542425;40;20057;-64
2023/07/31 10:24:16;;;;;;;5.45;3.65;;;;;;;19.14;91.56;100464.06;3540036;40;20062;-64
2023/07/31 10:26:47;;;;;;;4.90;3.58;;;;;;;19.18;91.86;100472.75;3539914;40;20050;-63
2023/07/31 10:29:16;;;;;;;4.75;3.08;;;;;;;19.18;90.52;100479.06;3537120;40;20062;-64
2023/07/31 10:31:43;;;;;;;6.20;3.75;;;;;;;19.23;91.61;100471.28;3541688;40;20061;-64
2023/07/31 10:34:09;;;;;;;6.47;3.50;;;;;;;19.28;90.38;100476.25;3539033;40;20073;-64
2023/07/31 10:36:35;;;;;;;6.57;3.10;;;;;;;19.32;90.16;100480.38;3543096;40;20366;-64
2023/07/31 10:39:04;;;;;;;4.93;3.50;;;;;;;19.34;89.34;100481.06;3539661;40;20066;-63
2023/07/31 10:41:31;;;;;;;4.00;3.40;;;;;;;19.38;89.48;100492.50;3540545;40;20383;-64
2023/07/31 10:44:07;;;;;;;3.60;3.20;;;;;;;19.40;89.43;100487.75;3539511;40;20060;-64
2023/07/31 10:46:33;;;;;;;6.53;3.53;;;;;;;18.91;89.22;100394.78;3541119;40;20106;-64
2023/07/31 10:49:02;;;;;;;5.80;3.67;;;;;;;19.46;90.09;100492.56;3541436;40;20062;-64
2023/07/31 10:51:35;;;;;;;5.40;3.40;;;;;;;19.50;88.61;100483.03;3536782;40;20125;-64
2023/07/31 10:54:15;;;;;;;5.25;3.50;;;;;;;19.48;87.74;100474.16;3539397;40;20054;-64
2023/07/31 10:56:46;;;;;;;5.57;3.78;;;;;;;19.16;87.91;100404.81;3539244;40;20337;-64
2023/07/31 10:59:13;;;;;;;5.57;3.50;;;;;;;19.60;87.03;100480.19;3539783;40;20058;-64
2023/07/31 11:01:57;;;;;;;6.05;3.65;;;;;;;18.91;86.83;100351.19;3540751;40;20050;-62
2023/07/31 11:04:27;;;;;;;5.47;3.38;;;;;;;19.67;87.03;100468.50;3540955;40;20514;-63
2023/07/31 11:06:59;;;;;;;6.18;3.75;;;;;;;19.67;85.18;100473.97;3534246;40;20054;-63
2023/07/31 11:09:30;;;;;;;6.95;3.90;;;;;;;19.70;84.68;100476.38;3538227;40;20061;-63
2023/07/31 11:11:56;;;;;;;4.13;3.40;;;;;;;19.82;85.72;100481.53;3535562;40;20429;-63
2023/07/31 11:14:22;;;;;;;8.02;3.97;;;;;;;19.82;84.47;100492.44;3544582;40;20053;-64
2023/07/31 11:16:51;;;;;;;4.38;3.40;;;;;;;19.77;84.62;100475.72;3542677;40;20108;-63
2023/07/31 11:19:24;;;;;;;4.40;3.25;;;;;;;19.70;85.00;100470.91;3539673;40;20050;-64